Avoca, Wisconsin
Current Conditions -  °F | °C
As of 6:56 PM on Wednesday 22 Oct 2014 (Local Time) from KLNR Reporting Station
Clear Clear  
Wind Chill:   Ceiling: Unl
Heat Index:   Visibility: 10mi
Dew Point:   Wind: 3mph
Humidity: 59%   Direction: 120°ESE
Pressure: 30.21"   Gusts: NA
Location:  43.18°N, 90.32°W
Report Text: KLNR 222356Z AUTO 12003KT 10SM CLR 09/02 A3021 RMK AO2 SLP232 T00940017 10172 20094 55009
Loading
Personal Weather Stations






























Interactive Weather Map
Tropical Storm Tracking
New forecast layout! Learn more

10-Day Weather Forecast

Advertisements
Track Severe Weather on mobile